sensor_id;sensor_type;location;lat;lon;timestamp;pressure;altitude;pressure_sealevel;temperature;humidity
23241;BME280;11789;53.482;9.862;2022-09-12T00:00:19;101894.22;;;12.49;97.06
23241;BME280;11789;53.482;9.862;2022-09-12T00:02:51;101889.88;;;12.43;97.02
23241;BME280;11789;53.482;9.862;2022-09-12T00:05:16;101889.88;;;12.43;96.70
23241;BME280;11789;53.482;9.862;2022-09-12T00:07:42;101890.72;;;12.43;96.39
23241;BME280;11789;53.482;9.862;2022-09-12T00:10:07;101889.84;;;12.40;96.30
23241;BME280;11789;53.482;9.862;2022-09-12T00:12:33;101888.97;;;12.39;96.14
23241;BME280;11789;53.482;9.862;2022-09-12T00:14:58;101889.81;;;12.37;95.82
23241;BME280;11789;53.482;9.862;2022-09-12T00:17:24;101885.47;;;12.34;95.77
23241;BME280;11789;53.482;9.862;2022-09-12T00:19:50;101887.16;;;12.29;96.14
23241;BME280;11789;53.482;9.862;2022-09-12T00:22:15;101882.75;;;12.20;96.83
23241;BME280;11789;53.482;9.862;2022-09-12T00:24:40;101889.66;;;12.18;97.07
23241;BME280;11789;53.482;9.862;2022-09-12T00:27:06;101886.16;;;12.16;97.25
23241;BME280;11789;53.482;9.862;2022-09-12T00:29:31;101880.09;;;12.13;97.32
23241;BME280;11789;53.482;9.862;2022-09-12T00:31:57;101880.16;;;12.17;97.70
23241;BME280;11789;53.482;9.862;2022-09-12T00:34:22;101875.00;;;12.22;97.01
23241;BME280;11789;53.482;9.862;2022-09-12T00:36:47;101880.19;;;12.22;96.77
23241;BME280;11789;53.482;9.862;2022-09-12T00:39:14;101875.00;;;12.22;95.95
23241;BME280;11789;53.482;9.862;2022-09-12T00:41:41;101879.34;;;12.23;95.46
23241;BME280;11789;53.482;9.862;2022-09-12T00:46:51;101870.66;;;12.18;94.94
23241;BME280;11789;53.482;9.862;2022-09-12T00:49:22;101861.91;;;12.08;95.31
23241;BME280;11789;53.482;9.862;2022-09-12T00:51:54;101865.38;;;12.10;95.33
23241;BME280;11789;53.482;9.862;2022-09-12T00:54:25;101865.31;;;12.04;95.61
23241;BME280;11789;53.482;9.862;2022-09-12T00:56:54;101867.09;;;12.08;95.80
23241;BME280;11789;53.482;9.862;2022-09-12T00:59:32;101869.69;;;12.08;95.81
23241;BME280;11789;53.482;9.862;2022-09-12T01:01:58;101864.50;;;12.10;95.53
23241;BME280;11789;53.482;9.862;2022-09-12T01:04:25;101864.50;;;12.08;95.36
23241;BME280;11789;53.482;9.862;2022-09-12T01:06:54;101856.69;;;12.04;95.22
23241;BME280;11789;53.482;9.862;2022-09-12T01:09:21;101854.09;;;12.05;94.77
23241;BME280;11789;53.482;9.862;2022-09-12T01:11:49;101857.59;;;12.09;94.35
23241;BME280;11789;53.482;9.862;2022-09-12T01:14:17;101852.41;;;12.07;94.11
23241;BME280;11789;53.482;9.862;2022-09-12T01:16:44;101850.69;;;12.08;93.67
23241;BME280;11789;53.482;9.862;2022-09-12T01:35:49;101850.59;;;12.00;92.26
23241;BME280;11789;53.482;9.862;2022-09-12T01:38:48;101847.13;;;11.98;91.79
23241;BME280;11789;53.482;9.862;2022-09-12T01:43:59;101849.69;;;11.95;90.84
23241;BME280;11789;53.482;9.862;2022-09-12T01:46:44;101838.44;;;11.94;90.79
23241;BME280;11789;53.482;9.862;2022-09-12T01:49:23;101843.59;;;11.88;90.71
23241;BME280;11789;53.482;9.862;2022-09-12T01:52:06;101825.31;;;11.79;90.41
23241;BME280;11789;53.482;9.862;2022-09-12T01:54:39;101829.59;;;11.73;90.67
23241;BME280;11789;53.482;9.862;2022-09-12T01:57:11;101828.62;;;11.64;90.92
23241;BME280;11789;53.482;9.862;2022-09-12T01:59:42;101826.06;;;11.66;90.61
23241;BME280;11789;53.482;9.862;2022-09-12T02:02:14;101830.34;;;11.65;90.53
23241;BME280;11789;53.482;9.862;2022-09-12T02:04:57;101822.63;;;11.67;90.43
23241;BME280;11789;53.482;9.862;2022-09-12T02:07:38;101823.44;;;11.64;90.15
23241;BME280;11789;53.482;9.862;2022-09-12T02:10:19;101820.84;;;11.63;90.07
23241;BME280;11789;53.482;9.862;2022-09-12T02:12:55;101817.28;;;11.53;90.45
23241;BME280;11789;53.482;9.862;2022-09-12T02:15:28;101816.28;;;11.39;91.18
23241;BME280;11789;53.482;9.862;2022-09-12T02:17:59;101815.34;;;11.32;91.93
23241;BME280;11789;53.482;9.862;2022-09-12T02:20:30;101817.88;;;11.29;92.69
23241;BME280;11789;53.482;9.862;2022-09-12T02:22:59;101810.91;;;11.24;93.10
23241;BME280;11789;53.482;9.862;2022-09-12T02:25:27;101807.41;;;11.18;93.69
23241;BME280;11789;53.482;9.862;2022-09-12T02:27:59;101802.16;;;11.12;94.12
23241;BME280;11789;53.482;9.862;2022-09-12T02:30:30;101809.06;;;11.13;94.56
23241;BME280;11789;53.482;9.862;2022-09-12T02:33:05;101801.28;;;11.10;94.79
23241;BME280;11789;53.482;9.862;2022-09-12T02:35:39;101798.69;;;11.10;94.93
23241;BME280;11789;53.482;9.862;2022-09-12T02:38:24;101803.88;;;11.10;94.63
23241;BME280;11789;53.482;9.862;2022-09-12T02:40:53;101801.28;;;11.10;94.34
23241;BME280;11789;53.482;9.862;2022-09-12T02:43:18;101803.03;;;11.11;94.58
23241;BME280;11789;53.482;9.862;2022-09-12T02:45:44;101797.91;;;11.17;94.20
23241;BME280;11789;53.482;9.862;2022-09-12T02:48:18;101794.47;;;11.18;93.92
23241;BME280;11789;53.482;9.862;2022-09-12T02:50:45;101795.31;;;11.17;94.32
23241;BME280;11789;53.482;9.862;2022-09-12T02:53:11;101800.50;;;11.19;94.20
23241;BME280;11789;53.482;9.862;2022-09-12T02:55:38;101798.84;;;11.23;94.22
23241;BME280;11789;53.482;9.862;2022-09-12T02:58:10;101797.16;;;11.26;94.34
23241;BME280;11789;53.482;9.862;2022-09-12T03:00:52;101795.38;;;11.22;94.23
23241;BME280;11789;53.482;9.862;2022-09-12T03:06:27;101803.16;;;11.24;93.02
23241;BME280;11789;53.482;9.862;2022-09-12T03:11:40;101806.72;;;11.32;92.54
23241;BME280;11789;53.482;9.862;2022-09-12T03:14:26;101804.19;;;11.38;92.89
23241;BME280;11789;53.482;9.862;2022-09-12T03:25:15;101804.03;;;11.24;93.59
23241;BME280;11789;53.482;9.862;2022-09-12T03:27:54;101803.03;;;11.14;93.92
23241;BME280;11789;53.482;9.862;2022-09-12T03:30:20;101803.94;;;11.16;93.45
23241;BME280;11789;53.482;9.862;2022-09-12T03:32:49;101802.22;;;11.17;93.08
23241;BME280;11789;53.482;9.862;2022-09-12T03:35:16;101801.34;;;11.16;92.65
23241;BME280;11789;53.482;9.862;2022-09-12T03:37:42;101797.91;;;11.17;92.24
23241;BME280;11789;53.482;9.862;2022-09-12T03:40:09;101796.06;;;11.09;92.25
23241;BME280;11789;53.482;9.862;2022-09-12T03:42:36;101796.94;;;11.09;92.03
23241;BME280;11789;53.482;9.862;2022-09-12T03:45:02;101800.44;;;11.13;91.86
23241;BME280;11789;53.482;9.862;2022-09-12T03:47:27;101809.94;;;11.12;91.57
23241;BME280;11789;53.482;9.862;2022-09-12T03:49:53;101802.97;;;11.07;91.17
23241;BME280;11789;53.482;9.862;2022-09-12T03:52:19;101806.28;;;10.98;90.82
23241;BME280;11789;53.482;9.862;2022-09-12T03:54:44;101804.50;;;10.93;91.01
23241;BME280;11789;53.482;9.862;2022-09-12T03:57:09;101808.88;;;10.95;90.68
23241;BME280;11789;53.482;9.862;2022-09-12T03:59:35;101806.22;;;10.92;90.61
23241;BME280;11789;53.482;9.862;2022-09-12T04:02:00;101808.69;;;10.83;91.22
23241;BME280;11789;53.482;9.862;2022-09-12T04:04:26;101804.34;;;10.80;91.24
23241;BME280;11789;53.482;9.862;2022-09-12T04:06:51;101795.75;;;10.81;91.16
23241;BME280;11789;53.482;9.862;2022-09-12T04:09:17;101799.13;;;10.79;91.53
23241;BME280;11789;53.482;9.862;2022-09-12T04:11:42;101790.50;;;10.77;91.53
23241;BME280;11789;53.482;9.862;2022-09-12T04:14:07;101789.63;;;10.75;91.62
23241;BME280;11789;53.482;9.862;2022-09-12T04:16:33;101790.50;;;10.75;91.43
23241;BME280;11789;53.482;9.862;2022-09-12T04:18:58;101794.78;;;10.75;91.68
23241;BME280;11789;53.482;9.862;2022-09-12T04:21:24;101796.37;;;10.65;92.59
23241;BME280;11789;53.482;9.862;2022-09-12T04:23:49;101788.50;;;10.57;93.54
23241;BME280;11789;53.482;9.862;2022-09-12T04:26:16;101785.00;;;10.54;94.34
23241;BME280;11789;53.482;9.862;2022-09-12T04:28:43;101785.13;;;10.60;93.67
23241;BME280;11789;53.482;9.862;2022-09-12T04:31:17;101783.34;;;10.59;93.68
23241;BME280;11789;53.482;9.862;2022-09-12T04:33:45;101780.75;;;10.57;94.14
23241;BME280;11789;53.482;9.862;2022-09-12T04:36:13;101789.44;;;10.61;94.85
23241;BME280;11789;53.482;9.862;2022-09-12T04:38:44;101791.22;;;10.65;94.55
23241;BME280;11789;53.482;9.862;2022-09-12T04:41:22;101785.19;;;10.66;94.42
23241;BME280;11789;53.482;9.862;2022-09-12T04:43:52;101791.16;;;10.60;94.32
23241;BME280;11789;53.482;9.862;2022-09-12T04:46:19;101790.22;;;10.55;94.40
23241;BME280;11789;53.482;9.862;2022-09-12T04:48:45;101788.44;;;10.53;94.60
23241;BME280;11789;53.482;9.862;2022-09-12T04:51:14;101782.41;;;10.54;94.25
23241;BME280;11789;53.482;9.862;2022-09-12T04:53:40;101783.34;;;10.57;94.13
23241;BME280;11789;53.482;9.862;2022-09-12T04:56:09;101785.84;;;10.51;94.34
23241;BME280;11789;53.482;9.862;2022-09-12T04:58:35;101785.91;;;10.54;95.10
23241;BME280;11789;53.482;9.862;2022-09-12T05:01:05;101785.06;;;10.58;94.95
23241;BME280;11789;53.482;9.862;2022-09-12T05:03:31;101785.13;;;10.61;94.51
23241;BME280;11789;53.482;9.862;2022-09-12T05:05:57;101788.59;;;10.63;94.02
23241;BME280;11789;53.482;9.862;2022-09-12T05:08:22;101789.44;;;10.62;93.72
23241;BME280;11789;53.482;9.862;2022-09-12T05:10:48;101792.87;;;10.61;93.78
23241;BME280;11789;53.482;9.862;2022-09-12T05:13:13;101791.09;;;10.57;94.01
23241;BME280;11789;53.482;9.862;2022-09-12T05:15:38;101788.44;;;10.53;94.40
23241;BME280;11789;53.482;9.862;2022-09-12T05:18:04;101783.31;;;10.56;94.46
23241;BME280;11789;53.482;9.862;2022-09-12T05:20:32;101787.59;;;10.54;94.59
23241;BME280;11789;53.482;9.862;2022-09-12T05:22:57;101793.69;;;10.59;94.76
23241;BME280;11789;53.482;9.862;2022-09-12T05:25:24;101786.06;;;10.68;94.53
23241;BME280;11789;53.482;9.862;2022-09-12T05:27:52;101784.41;;;10.72;94.52
23241;BME280;11789;53.482;9.862;2022-09-12T05:30:17;101789.66;;;10.79;94.25
23241;BME280;11789;53.482;9.862;2022-09-12T05:32:43;101792.34;;;10.87;94.05
23241;BME280;11789;53.482;9.862;2022-09-12T05:35:08;101787.19;;;10.87;94.25
23241;BME280;11789;53.482;9.862;2022-09-12T05:37:34;101796.69;;;10.89;94.67
23241;BME280;11789;53.482;9.862;2022-09-12T05:39:59;101787.25;;;10.90;95.30
23241;BME280;11789;53.482;9.862;2022-09-12T05:42:25;101789.84;;;10.93;95.70
23241;BME280;11789;53.482;9.862;2022-09-12T05:44:53;101793.34;;;10.98;96.61
23241;BME280;11789;53.482;9.862;2022-09-12T05:47:19;101796.94;;;11.09;96.76
23241;BME280;11789;53.482;9.862;2022-09-12T05:49:44;101798.84;;;11.23;96.03
23241;BME280;11789;53.482;9.862;2022-09-12T05:52:12;101785.97;;;11.30;95.75
23241;BME280;11789;53.482;9.862;2022-09-12T05:54:37;101799.94;;;11.44;95.32
23241;BME280;11789;53.482;9.862;2022-09-12T05:57:03;101798.34;;;11.56;94.91
23241;BME280;11789;53.482;9.862;2022-09-12T05:59:28;101794.03;;;11.59;96.18
23241;BME280;11789;53.482;9.862;2022-09-12T06:01:54;101796.72;;;11.67;95.88
23241;BME280;11789;53.482;9.862;2022-09-12T06:04:19;101801.12;;;11.79;95.55
23241;BME280;11789;53.482;9.862;2022-09-12T06:06:45;101792.63;;;11.89;95.45
23241;BME280;11789;53.482;9.862;2022-09-12T06:09:12;101793.53;;;11.94;95.26
23241;BME280;11789;53.482;9.862;2022-09-12T06:11:39;101800.50;;;12.01;95.21
23241;BME280;11789;53.482;9.862;2022-09-12T06:14:09;101799.72;;;12.10;95.41
23241;BME280;11789;53.482;9.862;2022-09-12T06:16:35;101798.88;;;12.15;95.44
23241;BME280;11789;53.482;9.862;2022-09-12T06:19:05;101800.69;;;12.23;95.57
23241;BME280;11789;53.482;9.862;2022-09-12T06:21:32;101803.31;;;12.29;95.52
23241;BME280;11789;53.482;9.862;2022-09-12T06:23:59;101805.94;;;12.33;95.80
23241;BME280;11789;53.482;9.862;2022-09-12T06:26:26;101796.47;;;12.37;95.79
23241;BME280;11789;53.482;9.862;2022-09-12T06:28:53;101794.78;;;12.43;96.54
23241;BME280;11789;53.482;9.862;2022-09-12T06:31:30;101803.47;;;12.49;96.91
23241;BME280;11789;53.482;9.862;2022-09-12T06:33:59;101798.31;;;12.53;97.37
23241;BME280;11789;53.482;9.862;2022-09-12T06:36:27;101793.13;;;12.56;98.25
23241;BME280;11789;53.482;9.862;2022-09-12T06:38:58;101800.06;;;12.60;98.61
23241;BME280;11789;53.482;9.862;2022-09-12T06:41:25;101792.31;;;12.65;98.87
23241;BME280;11789;53.482;9.862;2022-09-12T06:43:51;101786.28;;;12.70;99.15
23241;BME280;11789;53.482;9.862;2022-09-12T06:46:17;101785.41;;;12.71;100.00
23241;BME280;11789;53.482;9.862;2022-09-12T06:48:43;101786.31;;;12.73;100.00
23241;BME280;11789;53.482;9.862;2022-09-12T06:51:11;101786.34;;;12.80;100.00
23241;BME280;11789;53.482;9.862;2022-09-12T06:53:37;101783.75;;;12.84;100.00
23241;BME280;11789;53.482;9.862;2022-09-12T06:56:17;101775.97;;;12.87;100.00
23241;BME280;11789;53.482;9.862;2022-09-12T06:58:44;101779.47;;;12.94;100.00
23241;BME280;11789;53.482;9.862;2022-09-12T07:01:20;101786.44;;;12.98;100.00
23241;BME280;11789;53.482;9.862;2022-09-12T07:03:49;101784.69;;;13.02;100.00
23241;BME280;11789;53.482;9.862;2022-09-12T07:06:16;101782.13;;;13.06;100.00
23241;BME280;11789;53.482;9.862;2022-09-12T07:08:42;101787.34;;;13.14;100.00
23241;BME280;11789;53.482;9.862;2022-09-12T07:11:09;101780.47;;;13.25;100.00
23241;BME280;11789;53.482;9.862;2022-09-12T07:13:35;101779.63;;;13.32;100.00
23241;BME280;11789;53.482;9.862;2022-09-12T07:16:02;101783.13;;;13.46;100.00
23241;BME280;11789;53.482;9.862;2022-09-12T07:18:28;101781.44;;;13.59;100.00
23241;BME280;11789;53.482;9.862;2022-09-12T07:20:54;101774.50;;;13.67;100.00
23241;BME280;11789;53.482;9.862;2022-09-12T07:23:20;101779.72;;;13.76;100.00
23241;BME280;11789;53.482;9.862;2022-09-12T07:25:56;101776.25;;;13.82;100.00
23241;BME280;11789;53.482;9.862;2022-09-12T07:28:26;101766.72;;;13.98;100.00
23241;BME280;11789;53.482;9.862;2022-09-12T07:30:52;101758.03;;;14.11;100.00
23241;BME280;11789;53.482;9.862;2022-09-12T07:33:23;101755.44;;;14.25;100.00
23241;BME280;11789;53.482;9.862;2022-09-12T07:35:50;101751.03;;;14.39;100.00
23241;BME280;11789;53.482;9.862;2022-09-12T07:38:17;101749.31;;;14.52;100.00
23241;BME280;11789;53.482;9.862;2022-09-12T07:40:42;101750.16;;;14.63;100.00
23241;BME280;11789;53.482;9.862;2022-09-12T07:43:08;101754.44;;;14.73;100.00
23241;BME280;11789;53.482;9.862;2022-09-12T07:45:33;101755.31;;;14.82;100.00
23241;BME280;11789;53.482;9.862;2022-09-12T07:47:59;101759.59;;;14.89;100.00
23241;BME280;11789;53.482;9.862;2022-09-12T07:50:25;101756.97;;;14.95;100.00
23241;BME280;11789;53.482;9.862;2022-09-12T07:52:52;101755.19;;;15.06;100.00
23241;BME280;11789;53.482;9.862;2022-09-12T07:55:19;101747.31;;;15.15;100.00
23241;BME280;11789;53.482;9.862;2022-09-12T07:57:48;101751.59;;;15.28;100.00
23241;BME280;11789;53.482;9.862;2022-09-12T08:00:14;101753.25;;;15.42;100.00
23241;BME280;11789;53.482;9.862;2022-09-12T08:02:40;101761.88;;;15.51;99.16
23241;BME280;11789;53.482;9.862;2022-09-12T08:05:05;101755.75;;;15.54;98.59
23241;BME280;11789;53.482;9.862;2022-09-12T08:07:31;101760.94;;;15.62;98.36
23241;BME280;11789;53.482;9.862;2022-09-12T08:09:58;101760.06;;;15.67;98.23
23241;BME280;11789;53.482;9.862;2022-09-12T08:12:26;101767.00;;;15.61;98.30
23241;BME280;11789;53.482;9.862;2022-09-12T08:14:52;101767.03;;;15.59;98.60
23241;BME280;11789;53.482;9.862;2022-09-12T08:17:17;101758.31;;;15.62;98.58
23241;BME280;11789;53.482;9.862;2022-09-12T08:19:43;101767.00;;;15.68;97.41
23241;BME280;11789;53.482;9.862;2022-09-12T08:22:09;101760.84;;;15.78;95.96
23241;BME280;11789;53.482;9.862;2022-09-12T08:24:35;101765.09;;;15.89;94.08
23241;BME280;11789;53.482;9.862;2022-09-12T08:27:01;101759.91;;;15.84;94.35
23241;BME280;11789;53.482;9.862;2022-09-12T08:29:26;101766.03;;;15.80;94.79
23241;BME280;11789;53.482;9.862;2022-09-12T08:31:51;101759.94;;;15.79;95.54
23241;BME280;11789;53.482;9.862;2022-09-12T08:34:17;101767.75;;;15.81;95.59
23241;BME280;11789;53.482;9.862;2022-09-12T08:36:43;101759.03;;;15.87;95.42
23241;BME280;11789;53.482;9.862;2022-09-12T08:39:12;101755.50;;;15.91;95.25
23241;BME280;11789;53.482;9.862;2022-09-12T08:41:46;101760.69;;;15.95;95.42
23241;BME280;11789;53.482;9.862;2022-09-12T08:47:10;101761.50;;;16.03;95.18
23241;BME280;11789;53.482;9.862;2022-09-12T08:49:59;101749.22;;;16.13;95.17
23241;BME280;11789;53.482;9.862;2022-09-12T08:52:46;101752.66;;;16.17;95.34
23241;BME280;11789;53.482;9.862;2022-09-12T08:55:25;101749.16;;;16.22;94.79
23241;BME280;11789;53.482;9.862;2022-09-12T08:57:52;101742.94;;;16.32;92.45
23241;BME280;11789;53.482;9.862;2022-09-12T09:00:18;101743.69;;;16.44;88.00
23241;BME280;11789;53.482;9.862;2022-09-12T09:02:58;101737.50;;;16.51;85.82
23241;BME280;11789;53.482;9.862;2022-09-12T09:05:49;101735.72;;;16.57;84.61
23241;BME280;11789;53.482;9.862;2022-09-12T09:08:29;101736.44;;;16.69;82.89
23241;BME280;11789;53.482;9.862;2022-09-12T09:11:03;101729.44;;;16.72;82.75
23241;BME280;11789;53.482;9.862;2022-09-12T09:17:00;101736.34;;;16.79;82.89
23241;BME280;11789;53.482;9.862;2022-09-12T09:19:34;101729.34;;;16.83;83.49
23241;BME280;11789;53.482;9.862;2022-09-12T09:22:03;101725.78;;;16.89;82.44
23241;BME280;11789;53.482;9.862;2022-09-12T09:24:37;101725.66;;;16.96;81.96
23241;BME280;11789;53.482;9.862;2022-09-12T09:29:52;101731.53;;;17.12;79.93
23241;BME280;11789;53.482;9.862;2022-09-12T09:32:25;101727.97;;;17.18;77.77
23241;BME280;11789;53.482;9.862;2022-09-12T09:34:51;101717.47;;;17.22;77.53
23241;BME280;11789;53.482;9.862;2022-09-12T09:42:40;101711.22;;;17.34;75.37
23241;BME280;11789;53.482;9.862;2022-09-12T09:45:18;101714.59;;;17.41;75.74
23241;BME280;11789;53.482;9.862;2022-09-12T09:47:51;101704.87;;;17.47;76.76
23241;BME280;11789;53.482;9.862;2022-09-12T09:50:18;101714.47;;;17.47;75.91
23241;BME280;11789;53.482;9.862;2022-09-12T09:52:46;101711.91;;;17.45;74.54
23241;BME280;11789;53.482;9.862;2022-09-12T09:55:20;101710.97;;;17.49;74.53
23241;BME280;11789;53.482;9.862;2022-09-12T09:57:47;101714.38;;;17.54;73.52
23241;BME280;11789;53.482;9.862;2022-09-12T10:00:29;101709.97;;;17.56;72.88
23241;BME280;11789;53.482;9.862;2022-09-12T10:08:27;101704.66;;;17.61;74.79
23241;BME280;11789;53.482;9.862;2022-09-12T10:10:59;101715.13;;;17.61;73.80
23241;BME280;11789;53.482;9.862;2022-09-12T10:13:55;101703.88;;;17.56;74.25
23241;BME280;11789;53.482;9.862;2022-09-12T10:16:48;101708.16;;;17.61;73.63
23241;BME280;11789;53.482;9.862;2022-09-12T10:19:36;101700.34;;;17.60;74.11
23241;BME280;11789;53.482;9.862;2022-09-12T10:22:03;101708.16;;;17.61;73.14
23241;BME280;11789;53.482;9.862;2022-09-12T10:24:39;101706.34;;;17.65;73.18
23241;BME280;11789;53.482;9.862;2022-09-12T10:32:19;101697.38;;;17.81;71.88
23241;BME280;11789;53.482;9.862;2022-09-12T10:34:46;101692.88;;;17.89;72.14
23241;BME280;11789;53.482;9.862;2022-09-12T10:37:28;101690.16;;;17.94;72.43
23241;BME280;11789;53.482;9.862;2022-09-12T10:39:56;101687.50;;;17.97;73.29
23241;BME280;11789;53.482;9.862;2022-09-12T10:42:46;101693.50;;;18.02;72.98
23241;BME280;11789;53.482;9.862;2022-09-12T10:45:30;101692.53;;;18.08;73.33
23241;BME280;11789;53.482;9.862;2022-09-12T10:48:01;101689.06;;;18.07;73.68
23241;BME280;11789;53.482;9.862;2022-09-12T10:50:35;101688.16;;;18.08;72.40
23241;BME280;11789;53.482;9.862;2022-09-12T10:53:27;101679.41;;;18.09;71.64
23241;BME280;11789;53.482;9.862;2022-09-12T10:56:12;101682.88;;;18.11;72.69
23241;BME280;11789;53.482;9.862;2022-09-12T10:59:09;101682.03;;;18.09;72.87
23241;BME280;11789;53.482;9.862;2022-09-12T11:01:44;101680.31;;;18.10;73.28
23241;BME280;11789;53.482;9.862;2022-09-12T11:10:27;101665.16;;;18.26;72.07
23241;BME280;11789;53.482;9.862;2022-09-12T11:16:09;101665.09;;;18.29;71.52
23241;BME280;11789;53.482;9.862;2022-09-12T11:19:01;101660.78;;;18.26;72.11
23241;BME280;11789;53.482;9.862;2022-09-12T11:24:35;101659.12;;;18.22;74.14
23241;BME280;11789;53.482;9.862;2022-09-12T11:27:24;101655.59;;;18.23;73.65
23241;BME280;11789;53.482;9.862;2022-09-12T11:30:02;101659.06;;;18.25;74.45
23241;BME280;11789;53.482;9.862;2022-09-12T11:35:31;101648.56;;;18.27;74.85
23241;BME280;11789;53.482;9.862;2022-09-12T11:38:11;101653.75;;;18.28;75.18
23241;BME280;11789;53.482;9.862;2022-09-12T11:40:52;101653.75;;;18.28;74.99
23241;BME280;11789;53.482;9.862;2022-09-12T11:46:16;101644.91;;;18.34;74.59
23241;BME280;11789;53.482;9.862;2022-09-12T11:51:26;101641.44;;;18.33;74.55
23241;BME280;11789;53.482;9.862;2022-09-12T11:54:01;101640.53;;;18.34;74.13
23241;BME280;11789;53.482;9.862;2022-09-12T11:56:27;101643.03;;;18.40;73.34
23241;BME280;11789;53.482;9.862;2022-09-12T11:59:03;101641.13;;;18.49;70.62
23241;BME280;11789;53.482;9.862;2022-09-12T12:01:38;101642.78;;;18.53;70.11
23241;BME280;11789;53.482;9.862;2022-09-12T12:04:10;101634.78;;;18.59;70.18
23241;BME280;11789;53.482;9.862;2022-09-12T12:07:08;101635.53;;;18.64;70.04
23241;BME280;11789;53.482;9.862;2022-09-12T12:09:47;101637.19;;;18.71;68.54
23241;BME280;11789;53.482;9.862;2022-09-12T12:12:18;101644.13;;;18.72;69.38
23241;BME280;11789;53.482;9.862;2022-09-12T12:14:49;101632.81;;;18.72;69.41
23241;BME280;11789;53.482;9.862;2022-09-12T12:17:18;101634.56;;;18.71;69.47
23241;BME280;11789;53.482;9.862;2022-09-12T12:19:46;101627.56;;;18.70;69.08
23241;BME280;11789;53.482;9.862;2022-09-12T12:22:23;101630.19;;;18.70;69.67
23241;BME280;11789;53.482;9.862;2022-09-12T12:38:00;101622.44;;;18.64;71.21
23241;BME280;11789;53.482;9.862;2022-09-12T12:40:28;101626.75;;;18.68;70.92
23241;BME280;11789;53.482;9.862;2022-09-12T12:43:02;101622.38;;;18.69;70.99
23241;BME280;11789;53.482;9.862;2022-09-12T12:47:58;101624.91;;;18.73;71.01
23241;BME280;11789;53.482;9.862;2022-09-12T12:50:26;101611.75;;;18.75;71.66
23241;BME280;11789;53.482;9.862;2022-09-12T12:53:33;101606.31;;;18.84;69.14
23241;BME280;11789;53.482;9.862;2022-09-12T12:55:54;101612.19;;;18.93;67.18
23241;BME280;11789;53.482;9.862;2022-09-12T12:58:35;101615.63;;;18.96;68.93
23241;BME280;11789;53.482;9.862;2022-09-12T13:01:13;101614.72;;;18.98;68.77
23241;BME280;11789;53.482;9.862;2022-09-12T13:03:43;101611.16;;;19.01;67.63
23241;BME280;11789;53.482;9.862;2022-09-12T13:09:01;101599.63;;;19.08;68.61
23241;BME280;11789;53.482;9.862;2022-09-12T13:11:45;101598.66;;;19.12;68.12
23241;BME280;11789;53.482;9.862;2022-09-12T13:17:28;101586.31;;;19.15;68.21
23241;BME280;11789;53.482;9.862;2022-09-12T13:20:20;101575.84;;;19.17;68.92
23241;BME280;11789;53.482;9.862;2022-09-12T13:22:49;101575.84;;;19.17;68.70
23241;BME280;11789;53.482;9.862;2022-09-12T13:25:35;101563.62;;;19.16;69.50
23241;BME280;11789;53.482;9.862;2022-09-12T13:28:04;101557.38;;;19.20;69.65
23241;BME280;11789;53.482;9.862;2022-09-12T13:30:35;101559.03;;;19.24;69.47
23241;BME280;11789;53.482;9.862;2022-09-12T13:35:48;101550.19;;;19.28;69.26
23241;BME280;11789;53.482;9.862;2022-09-12T13:38:46;101550.25;;;19.25;69.79
23241;BME280;11789;53.482;9.862;2022-09-12T13:43:56;101541.41;;;19.29;69.27
23241;BME280;11789;53.482;9.862;2022-09-12T13:46:29;101532.66;;;19.30;67.39
23241;BME280;11789;53.482;9.862;2022-09-12T13:48:57;101531.78;;;19.31;67.46
23241;BME280;11789;53.482;9.862;2022-09-12T13:51:29;101524.78;;;19.30;68.37
23241;BME280;11789;53.482;9.862;2022-09-12T13:53:58;101522.25;;;19.27;67.99
23241;BME280;11789;53.482;9.862;2022-09-12T13:56:27;101522.31;;;19.24;68.64
23241;BME280;11789;53.482;9.862;2022-09-12T13:58:55;101516.28;;;19.21;68.19
23241;BME280;11789;53.482;9.862;2022-09-12T14:01:23;101518.13;;;19.18;68.23
23241;BME280;11789;53.482;9.862;2022-09-12T14:03:51;101513.81;;;19.16;69.18
23241;BME280;11789;53.482;9.862;2022-09-12T14:06:47;101528.72;;;19.14;69.58
23241;BME280;11789;53.482;9.862;2022-09-12T14:11:43;101517.94;;;19.25;67.45
23241;BME280;11789;53.482;9.862;2022-09-12T14:16:53;101509.78;;;19.35;68.52
23241;BME280;11789;53.482;9.862;2022-09-12T14:19:21;101513.00;;;19.47;67.69
23241;BME280;11789;53.482;9.862;2022-09-12T14:21:47;101505.78;;;19.55;65.34
23241;BME280;11789;53.482;9.862;2022-09-12T14:24:15;101508.44;;;19.53;65.77
23241;BME280;11789;53.482;9.862;2022-09-12T14:26:42;101505.03;;;19.50;66.44
23241;BME280;11789;53.482;9.862;2022-09-12T14:29:14;101514.72;;;19.48;66.98
23241;BME280;11789;53.482;9.862;2022-09-12T14:31:41;101506.00;;;19.45;66.98
23241;BME280;11789;53.482;9.862;2022-09-12T14:34:09;101497.41;;;19.42;67.34
23241;BME280;11789;53.482;9.862;2022-09-12T14:41:40;101497.41;;;19.42;67.87
23241;BME280;11789;53.482;9.862;2022-09-12T14:44:14;101483.44;;;19.41;67.24
23241;BME280;11789;53.482;9.862;2022-09-12T14:46:41;101482.53;;;19.41;67.25
23241;BME280;11789;53.482;9.862;2022-09-12T14:49:27;101484.44;;;19.36;67.59
23241;BME280;11789;53.482;9.862;2022-09-12T14:52:02;101475.69;;;19.35;67.48
23241;BME280;11789;53.482;9.862;2022-09-12T14:56:59;101478.25;;;19.38;68.16
23241;BME280;11789;53.482;9.862;2022-09-12T14:59:35;101468.50;;;19.43;67.57
23241;BME280;11789;53.482;9.862;2022-09-12T15:04:51;101464.19;;;19.41;66.64
23241;BME280;11789;53.482;9.862;2022-09-12T15:07:42;101466.00;;;19.39;66.91
23241;BME280;11789;53.482;9.862;2022-09-12T15:12:49;101457.44;;;19.32;68.02